ADDS METAR Data INFO
IDs: Format: Raw Decoded Include TAF

Data at: 0747 UTC 20 Feb 2018

KINJ 200735Z AUTO 16013KT 10SM SCT022 OVC028 22/20 A2987 RMK AO2 T02150198
KINJ 200715Z AUTO 15014G19KT 10SM BKN022 OVC028 21/20 A2986 RMK AO2 T02130200
KINJ 200655Z AUTO 15015G24KT 10SM SCT020 BKN027 OVC036 22/20 A2986 RMK AO2 T02150200
KINJ 200635Z AUTO 15016G22KT 10SM BKN024 OVC028 22/20 A2986 RMK AO2 T02150200
KINJ 200615Z AUTO 15017G22KT 10SM OVC024 21/20 A2985 RMK AO2 T02140200
KINJ 200555Z AUTO 15017G22KT 10SM SCT016 OVC026 21/20 A2985 RMK AO2 T02130198 10232 20204 402630186
KINJ 200535Z AUTO 15016G21KT 10SM SCT016 BKN026 OVC033 21/20 A2985 RMK AO2 T02110197
KINJ 200515Z AUTO 15017G23KT 10SM SCT021 SCT026 OVC032 21/20 A2985 RMK AO2 LTG DSNT SE T02110196
KINJ 200455Z AUTO 15019G23KT 10SM BKN017 OVC029 21/20 A2985 RMK AO2 T02110196
KINJ 200435Z AUTO 15016G22KT 10SM OVC017 21/20 A2985 RMK AO2 T02120196
KINJ 200415Z AUTO 17017G20KT 10SM OVC019 21/20 A2986 RMK AO2 T02110195
KINJ 200355Z AUTO 16015G23KT 10SM OVC022 21/20 A2985 RMK AO2 T02100195
KINJ 200335Z AUTO 15016G23KT 10SM BKN022 BKN028 BKN039 21/19 A2985 RMK AO2 LTG DSNT N T02100192
KINJ 200315Z AUTO 15017G20KT 10SM SCT120 21/19 A2983 RMK AO2 T02060190
KINJ 200255Z AUTO 14017G20KT 10SM VCTS SCT025 SCT036 BKN120 20/19 A2982 RMK AO2 LTG DSNT NE T02040190
KINJ 200235Z AUTO 15017G23KT 10SM -DZ SCT025 SCT036 BKN120 21/19 A2984 RMK AO2 T02070189
KINJ 200215Z AUTO 15016G23KT 10SM SCT035 SCT065 BKN110 22/18 A2984 RMK AO2 T02150184
KINJ 200155Z AUTO 15016G19KT 10SM BKN033 BKN048 OVC085 21/18 A2983 RMK AO2 T02100181
KINJ 200135Z AUTO 15013G22KT 10SM -DZ OVC035 21/18 A2984 RMK AO2 T02110182
KINJ 200115Z AUTO 16018G23KT 10SM -RA SCT032 OVC038 23/18 A2983 RMK AO2 T02270176
KINJ 200055Z AUTO 16019G26KT 10SM OVC032 23/18 A2983 RMK AO2 T02290179
KINJ 200035Z AUTO 16020G24KT 10SM BKN029 OVC035 23/19 A2982 RMK AO2 T02300185
KINJ 200015Z AUTO 16015G23KT 10SM OVC029 23/19 A2981 RMK AO2 T02320193
KINJ 192355Z AUTO 16013G19KT 10SM BKN029 OVC034 23/20 A2981 RMK AO2 T02320195 10263 20223
KINJ 192335Z AUTO 15007KT 10SM OVC034 22/20 A2980 RMK AO2 T02230197
KINJ 192315Z AUTO 17009KT 10SM BKN034 BKN043 BKN120 23/20 A2980 RMK AO2 T02260195
KINJ 192255Z AUTO 17017G27KT 10SM -RA BKN040 BKN050 BKN070 24/19 A2980 RMK AO2 T02350190
KINJ 192235Z AUTO 16022G28KT 10SM BKN042 OVC050 25/18 A2979 RMK AO2 T02500180
KINJ 192215Z AUTO 17023G30KT 10SM BKN043 OVC050 26/18 A2979 RMK AO2 LTG DSNT S T02550177
KINJ 192155Z AUTO 17020G28KT 10SM BKN043 OVC055 26/18 A2979 RMK AO2 T02550176
KINJ 192135Z AUTO 17017G28KT 10SM BKN043 OVC050 26/17 A2979 RMK AO2 T02550172
KINJ 192115Z AUTO 16021G31KT 10SM BKN047 OVC060 26/17 A2979 RMK AO2 T02600170
KINJ 192055Z AUTO 17021G32KT 10SM BKN044 OVC050 25/17 A2980 RMK AO2 T02530167
KINJ 192035Z AUTO 17024G29KT 10SM BKN044 OVC050 25/17 A2980 RMK AO2 T02530171
KINJ 192015Z AUTO 17018G25KT 10SM BKN042 OVC050 25/17 A2982 RMK AO2 T02450170
KINJ 191955Z AUTO 18023G32KT 10SM BKN040 OVC048 25/17 A2983 RMK AO2 T02470173
KINJ 191935Z AUTO 18019G28KT 10SM -RA BKN038 OVC048 23/18 A2984 RMK AO2 T02310178
KINJ 191915Z AUTO 18025G35KT 10SM BKN038 BKN043 OVC050 25/17 A2984 RMK AO2 T02450170
KINJ 191855Z AUTO 17025G31KT 10SM OVC036 25/18 A2985 RMK AO2 T02490175
KINJ 191835Z AUTO 17021G29KT 10SM SCT031 OVC037 24/18 A2985 RMK AO2 T02390180
KINJ 191815Z AUTO 17024G32KT 10SM SCT029 BKN037 BKN120 24/18 A2986 RMK AO2 T02350180
KINJ 191755Z AUTO 18026G32KT 10SM SCT029 SCT120 24/18 A2986 RMK AO2 T02360181 10248 20191
KINJ 191735Z AUTO 17029G40KT 10SM SCT029 SCT035 24/18 A2986 RMK AO2 T02380181
KINJ 191715Z AUTO 17025G35KT 10SM SCT026 SCT035 25/18 A2986 RMK AO2 T02480183
KINJ 191655Z AUTO 17026G35KT 10SM SCT024 24/19 A2986 RMK AO2 T02360188
KINJ 191635Z AUTO 17026G33KT 10SM SCT022 24/19 A2986 RMK AO2 T02390191
KINJ 191620Z AUTO 17029G37KT 10SM SCT022 23/19 A2986 RMK AO2 T02270189
KINJ 191555Z AUTO 17025G32KT 10SM BKN018 BKN024 22/19 A2986 RMK AO2 T02220190
KINJ 191535Z AUTO 17024G30KT 10SM SCT016 SCT022 22/19 A2986 RMK AO2 T02200192
KINJ 191515Z AUTO 17024G31KT 10SM BKN016 22/19 A2986 RMK AO2 T02180193
KINJ 191455Z AUTO 16024G31KT 10SM OVC016 21/19 A2986 RMK AO2 T02110191
KINJ 191435Z AUTO 16024G32KT 10SM BKN014 21/19 A2986 RMK AO2 T02070191
KINJ 191415Z AUTO 16024G30KT 10SM BKN014 BKN020 20/19 A2985 RMK AO2 T02040190
KINJ 191355Z AUTO 16021G27KT 10SM OVC014 20/19 A2986 RMK AO2 T02020190
KINJ 191335Z AUTO 16020G27KT 10SM BKN014 OVC020 20/19 A2985 RMK AO2 T01970188
KINJ 191315Z AUTO 15018G25KT 10SM OVC014 20/19 A2985 RMK AO2 T01950187
KINJ 191255Z AUTO 15017G22KT 10SM BKN012 19/19 A2986 RMK AO2 T01920186
KINJ 191235Z AUTO 14016KT 10SM SCT010 BKN015 19/19 A2986 RMK AO2 T01910185
KINJ 191215Z AUTO 14017G21KT 10SM SCT014 BKN020 19/19 A2986 RMK AO2 LTG DSNT NE T01920185
KINJ 191155Z AUTO 15017G20KT 10SM BKN017 OVC023 20/19 A2986 RMK AO2 70001 T01950186 10196 20186
KINJ 191135Z AUTO 15014G18KT 10SM BKN017 OVC023 20/19 A2987 RMK AO2 T01950185
KINJ 191115Z AUTO 16014G19KT 10SM OVC017 20/19 A2988 RMK AO2 T01960185
KINJ 191055Z AUTO 16015G18KT 10SM OVC017 20/19 A2988 RMK AO2 T01950185
KINJ 191035Z AUTO 16015G20KT 10SM OVC017 20/18 A2988 RMK AO2 T01950183
KINJ 191015Z AUTO 16016KT 10SM OVC015 20/18 A2987 RMK AO2 T01950183
KINJ 190955Z AUTO 16013G17KT 10SM OVC017 19/18 A2988 RMK AO2 T01930181
KINJ 190935Z AUTO 16014G17KT 10SM OVC017 19/18 A2987 RMK AO2 T01930180
KINJ 190915Z AUTO 16014G18KT 10SM OVC017 19/18 A2988 RMK AO2 T01920180
KINJ 190855Z AUTO 16015G20KT 10SM OVC019 19/18 A2987 RMK AO2 T01910179
KINJ 190835Z AUTO 16016G22KT 10SM BKN019 OVC024 19/18 A2988 RMK AO2 T01900178
KINJ 190815Z AUTO 16014G24KT 10SM BKN018 OVC023 19/18 A2988 RMK AO2 T01870178
KINJ 190755Z AUTO 15016KT 10SM OVC018 19/18 A2988 RMK AO2 T01900176
KINJ 190735Z AUTO 16017G21KT 10SM OVC018 19/18 A2988 RMK AO2 T01900176
KINJ 190715Z AUTO 16018G27KT 10SM OVC018 19/18 A2988 RMK AO2 T01880176
KINJ 190655Z AUTO 16018G24KT 10SM -RA OVC016 19/18 A2988 RMK AO2 LTG DSNT NE T01880175
KINJ 190635Z AUTO 16016G21KT 10SM VCTS BKN018 19/17 A2990 RMK AO2 T01880174
KINJ 190615Z AUTO 16013G22KT 10SM -DZ CLR 19/18 A2989 RMK AO2 LTG DSNT NE T01870175
KINJ 190555Z AUTO 16014G19KT 10SM CLR 19/17 A2989 RMK AO2 LTG DSNT NE T01880173 10195 20152 401950067
KINJ 190535Z AUTO 16017G21KT 10SM -RA SCT090 SCT110 19/18 A2989 RMK AO2 LTG DSNT NE T01900175
KINJ 190515Z AUTO 16016KT 10SM SCT090 SCT110 19/18 A2989 RMK AO2 T01940175
KINJ 190455Z AUTO 16013G20KT 10SM CLR 19/18 A2990 RMK AO2 T01940176
KINJ 190435Z AUTO 16012KT 10SM SCT024 SCT120 18/18 A2990 RMK AO2 T01810176
KINJ 190415Z AUTO 15010KT 10SM CLR 18/18 A2990 RMK AO2 T01750175
KINJ 190355Z AUTO 15011KT 10SM CLR 17/17 A2990 RMK AO2 T01700170
KINJ 190335Z AUTO 14006KT 7SM CLR 16/16 A2990 RMK AO2 T01640164
KINJ 190315Z AUTO 14009KT 7SM SCT002 SCT006 SCT010 17/17 A2990 RMK AO2 T01660166
KINJ 190255Z AUTO 11003KT 1/2SM FG OVC002 15/15 A2990 RMK AO2 T01520152
KINJ 190235Z AUTO 00000KT 1/4SM FG OVC002 15/15 A2990 RMK AO2 T01520152
KINJ 190215Z AUTO 00000KT 1/4SM FG OVC002 16/16 A2991 RMK AO2 T01550155
KINJ 190155Z AUTO 00000KT 1/4SM FG OVC002 16/16 A2991 RMK AO2 T01570157
KINJ 190135Z AUTO 14003KT 1/4SM FG OVC002 16/16 A2990 RMK AO2 T01590159
KINJ 190115Z AUTO 18004KT 1/4SM FG OVC002 16/16 A2991 RMK AO2 T01600160
KINJ 190055Z AUTO 17005KT 1/2SM FG OVC002 16/16 A2990 RMK AO2 T01600160
KINJ 190035Z AUTO 15007KT 3/4SM BR OVC002 16/16 A2990 RMK AO2 T01590159
KINJ 190015Z AUTO 15008KT 1 1/4SM BR OVC002 16/16 A2991 RMK AO2 T01570157
KINJ 182355Z AUTO 14007KT 1 1/4SM BR OVC002 16/16 A2991 RMK AO2 60001 T01550155 10155 20126
KINJ 182335Z AUTO 13008KT 1SM BR OVC002 15/15 A2991 RMK AO2 T01530153
KINJ 182315Z AUTO 14009KT 1 1/4SM BR OVC004 16/16 A2992 RMK AO2 T01550155
KINJ 182255Z AUTO 15013KT 2SM BR OVC004 16/16 A2992 RMK AO2 T01550155
KINJ 182235Z AUTO 14013KT 4SM BR OVC004 15/15 A2992 RMK AO2 T01510151
KINJ 182215Z AUTO 13015G20KT 4SM BR OVC004 15/15 A2992 RMK AO2 T01510151
KINJ 182155Z AUTO 13014KT 4SM BR OVC004 15/15 A2993 RMK AO2 T01490149
KINJ 182135Z AUTO 12011G15KT 4SM BR OVC006 15/15 A2995 RMK AO2 T01450145
KINJ 182115Z AUTO 13012KT 4SM BR BKN006 OVC026 15/15 A2997 RMK AO2 T01450145
KINJ 182055Z AUTO 13011KT 5SM BR BKN004 OVC007 14/14 A2999 RMK AO2 P0001 60001 T01420142
KINJ 182035Z AUTO 12008KT 2SM BR OVC004 14/14 A3000 RMK AO2 P0001 T01400140
KINJ 182015Z AUTO 14005KT 2 1/2SM RA OVC004 13/13 A3003 RMK AO2 P0001 T01320132
KINJ 181955Z AUTO 17003KT 4SM -RA OVC004 13/13 A3005 RMK AO2 T01300130